CheckWX is a tool to help pilots better visualize weather data.  It is not intended as a substitute for an official pre-flight weather briefing.

08:11:26 UTC

KELZ METAR
Wellsville Municipal Arpt,tarantine Field Airport
Wellsville, New York, USA
Current

15 mins ago

KELZ 220756Z AUTO 32009KT 8SM OVC022 M03/M06 A3022 RMK AO2 SLP255 T10281056 $
Observed
Feb-22 @ 07:56 UTC
Wind
  • 320° at 9 KTS
Visibility
8 SM
Flight Rules
MVFR
Cloud Levels
  • Overcast at 2,200' AGL
Temperature
-3°C / 27°F
Dewpoint
-6°C / 21°F
Humidity
80%
Altimeter
30.22" Hg
Pressure
1025.5 hPa
Previous

1 hour ago

KELZ 220656Z AUTO 32010G16KT 7SM OVC019 M02/M05 A3020 RMK AO2 SLP250 T10221050 $
Observed
Feb-22 @ 06:56 UTC
Wind
  • 320° at 10 KTS
  • Gusting to KTS
Visibility
7 SM
Flight Rules
MVFR
Cloud Levels
  • Overcast at 1,900' AGL
Temperature
-2°C / 28°F
Dewpoint
-5°C / 23°F
Humidity
80%
Altimeter
30.2" Hg
Pressure
1025 hPa
Previous

2 hours ago

KELZ 220556Z AUTO 31012KT 9SM OVC023 M02/M06 A3019 RMK AO2 SLP246 T10221056 10000 21028 53017 $
Observed
Feb-22 @ 05:56 UTC
Wind
  • 310° at 12 KTS
Visibility
9 SM
Flight Rules
MVFR
Cloud Levels
  • Overcast at 2,300' AGL
Temperature
-2°C / 28°F
Dewpoint
-6°C / 21°F
Humidity
74%
Altimeter
30.19" Hg
Pressure
1024.6 hPa